»·PEaware :: N739HH KSNA-KAVX

N739HH :: KSNA-KAVX

FLIGHT INFORMATION

Flight Status: Arrived
Operator: Privately registered:
United States
More flights under this callsign
Pilot: Drew L. (13237)
Aircraft: CESSNA 172 SKYHAWK
(C172)
More flights by this aircraft type
Origin: KSNA John Wayne-Orange Co
United States
Destination: KAVX Catalina
United States
More flights between these airports :: More routes between these airports
Route: +SLI V21 SXC
File this flight plan on PilotEdge
Remarks: i7 Rating
Altitude:
(Current/Filed)
4,000ft
Speed:
(Current/Filed)
455kts
Departed: 16-Apr-18 12:04 PM
Arrived: 16-Apr-18 01:10 PM
Distance/Time
Traveled:
32nm/1:06
Distance/Time
To Go:
Arrived

Flight Plot

Page will automatically refresh every two minutes.


Map Options




Map Legend


Flown Route
Filed Route
Departure Airport
Arrival Airport
Navaid (VOR, NDB)
Fix

Horizontal Profiles

Position Reports

Time Latitude Longitude Heading Altitude Ground
Speed
16-Apr-18 12:02 33.525388 -118.397719 197 3058ft 97kts
16-Apr-18 12:03 33.496709 -118.402154 194 2114ft 103kts
16-Apr-18 12:04 33.472906 -118.405405 197 2097ft 80kts
16-Apr-18 12:05 33.451138 -118.408557 197 2109ft 78kts
16-Apr-18 12:06 33.429644 -118.411698 197 2116ft 78kts
16-Apr-18 12:07 33.405981 -118.409751 137 2125ft 122kts
16-Apr-18 12:08 33.414972 -118.372218 41 2510ft 132kts
16-Apr-18 12:09 33.441415 -118.338392 42 2516ft 143kts
16-Apr-18 12:22 33.676910 -117.872066 120 60ft 0kts
16-Apr-18 12:23 33.676910 -117.872066 120 60ft 0kts
16-Apr-18 12:24 33.676330 -117.870490 158 60ft 0kts
16-Apr-18 12:25 33.676330 -117.870490 158 60ft 0kts
16-Apr-18 12:26 33.676330 -117.870490 158 60ft 0kts
16-Apr-18 12:27 33.676330 -117.870490 158 60ft 0kts
16-Apr-18 12:28 33.676330 -117.870490 158 60ft 0kts
16-Apr-18 12:29 33.676330 -117.870490 158 60ft 0kts
16-Apr-18 12:30 33.676330 -117.870490 158 60ft 0kts
16-Apr-18 12:31 33.676330 -117.870490 158 60ft 0kts
16-Apr-18 12:32 33.676186 -117.870353 120 60ft 3kts
16-Apr-18 12:33 33.672791 -117.870634 211 87ft 63kts
16-Apr-18 12:34 33.656900 -117.883857 229 937ft 79kts
16-Apr-18 12:35 33.642828 -117.903047 230 1941ft 65kts
16-Apr-18 12:36 33.632751 -117.916469 227 2839ft 62kts
16-Apr-18 12:37 33.619110 -117.935581 230 3454ft 83kts
16-Apr-18 12:38 33.604055 -117.957407 230 3986ft 91kts
16-Apr-18 12:39 33.586235 -117.983917 230 3990ft 107kts
16-Apr-18 12:40 33.567494 -118.012059 230 3989ft 108kts
16-Apr-18 12:41 33.551450 -118.036240 230 3989ft 108kts
16-Apr-18 12:42 33.532668 -118.064462 230 3989ft 108kts
16-Apr-18 12:43 33.513860 -118.092381 230 3990ft 108kts
16-Apr-18 12:44 33.495745 -118.118524 230 3987ft 108kts
16-Apr-18 12:45 33.476280 -118.145570 230 3991ft 108kts
16-Apr-18 12:46 33.456751 -118.171848 230 3999ft 108kts
16-Apr-18 12:47 33.436734 -118.197935 229 4006ft 108kts
16-Apr-18 12:48 33.416109 -118.224433 230 4010ft 109kts
16-Apr-18 12:49 33.406236 -118.257522 256 4012ft 107kts
16-Apr-18 12:50 33.399579 -118.292219 256 4014ft 107kts
16-Apr-18 12:51 33.392881 -118.326979 256 4016ft 107kts
16-Apr-18 12:52 33.386186 -118.361663 256 4016ft 107kts
16-Apr-18 12:53 33.379479 -118.396345 256 4016ft 107kts
16-Apr-18 12:54 33.396189 -118.415484 3 3978ft 125kts
16-Apr-18 12:55 33.430047 -118.406237 3 3364ft 124kts
16-Apr-18 12:56 33.459498 -118.397825 3 3208ft 103kts
16-Apr-18 12:57 33.488334 -118.389572 3 3189ft 107kts
16-Apr-18 12:58 33.519682 -118.382868 333 3169ft 114kts
16-Apr-18 12:59 33.546150 -118.401735 318 3157ft 111kts
16-Apr-18 13:00 33.574529 -118.415149 17 3145ft 130kts
16-Apr-18 13:01 33.575684 -118.391870 179 3135ft 64kts
16-Apr-18 13:02 33.553800 -118.394127 195 2818ft 95kts
16-Apr-18 13:03 33.526982 -118.397887 195 2292ft 91kts
16-Apr-18 13:04 33.502628 -118.401302 197 2087ft 85kts
16-Apr-18 13:05 33.481162 -118.404584 201 2071ft 80kts
16-Apr-18 13:06 33.457960 -118.407857 200 2080ft 83kts
16-Apr-18 13:07 33.434913 -118.411231 201 2078ft 87kts
16-Apr-18 13:08 33.412372 -118.405619 215 1976ft 74kts
16-Apr-18 13:09 33.403779 -118.416867 124 1606ft 0kts
16-Apr-18 13:10 33.403724 -118.415249 40 1606ft 6kts
16-Apr-18 13:11 33.403718 -118.414973 295 1606ft 0kts
16-Apr-18 13:12 33.403718 -118.414973 295 1606ft 0kts
16-Apr-18 13:13 33.403718 -118.414973 295 1606ft 0kts
16-Apr-18 13:14 33.403718 -118.414973 295 1606ft 0kts
16-Apr-18 13:15 33.403718 -118.414973 295 1606ft 0kts
16-Apr-18 13:16 33.403718 -118.414973 295 1606ft 0kts
16-Apr-18 13:17 33.404059 -118.415048 17 1606ft 0kts
16-Apr-18 13:18 33.404059 -118.415048 17 1606ft 0kts

Navigation Log

Ident Type
Flight plan parsing failed, navigation log unavailable